Time;durP1;ratioP1;P1;durP2;ratioP2;P2;SDS_P1;SDS_P2;PMS_P1;PMS_P2;Temp;Humidity;BMP_temperature;BMP_pressure;BME280_temperature;BME280_humidity;BME280_pressure;Samples;Min_cycle;Max_cycle;Signal;HPM_P1;HPM_P2
2022/05/05 00:00:42;;;;;;;12.57;5.85;;;;;;;-145.50;100.00;65435.88;5074487;28;20105;-67
2022/05/05 00:03:09;;;;;;;9.73;5.30;;;;;;;-145.50;100.00;65435.88;5071256;28;20048;-67
2022/05/05 00:05:35;;;;;;;13.13;6.43;;;;;;;-145.50;100.00;65435.88;5069203;28;20058;-67
2022/05/05 00:08:02;;;;;;;9.93;5.25;;;;;;;-145.50;100.00;65435.88;5053330;28;20274;-69
2022/05/05 00:15:58;;;;;;;12.73;5.30;;;;;;;-145.50;100.00;65435.88;5053352;28;20052;-67
2022/05/05 00:18:25;;;;;;;12.32;5.68;;;;;;;-145.50;100.00;65435.88;5076078;28;20049;-67
2022/05/05 00:20:51;;;;;;;13.82;5.32;;;;;;;-145.50;100.00;65435.88;5073118;28;20044;-68
2022/05/05 00:23:18;;;;;;;11.82;6.18;;;;;;;-145.50;100.00;65435.88;5075381;28;20477;-67
2022/05/05 00:25:45;;;;;;;14.07;5.70;;;;;;;-145.50;100.00;65435.88;5044074;28;20070;-66
2022/05/05 00:28:11;;;;;;;10.88;5.47;;;;;;;-145.50;100.00;65435.88;5067107;28;20502;-67
2022/05/05 00:30:38;;;;;;;13.38;5.70;;;;;;;-145.50;100.00;65435.88;5054371;28;20759;-68
2022/05/05 00:33:04;;;;;;;14.70;5.50;;;;;;;-145.50;100.00;65435.88;5056993;28;20451;-67
2022/05/05 00:35:31;;;;;;;11.13;5.63;;;;;;;-145.50;100.00;65435.88;5068674;28;20058;-67
2022/05/05 00:37:57;;;;;;;10.70;5.93;;;;;;;-145.50;100.00;65435.88;5051004;28;20587;-66
2022/05/05 00:40:24;;;;;;;14.43;5.90;;;;;;;-145.50;100.00;65435.88;5060569;28;20044;-68
2022/05/05 00:42:50;;;;;;;9.35;5.68;;;;;;;-145.50;100.00;65435.88;5058947;28;20060;-67
2022/05/05 00:45:17;;;;;;;12.35;5.35;;;;;;;-145.50;100.00;65435.88;5070647;28;20048;-68
2022/05/05 00:47:43;;;;;;;13.98;5.90;;;;;;;-145.50;100.00;65435.88;5062075;28;20052;-67
2022/05/05 00:50:11;;;;;;;12.98;5.68;;;;;;;-145.50;100.00;65435.88;5068722;28;20054;-67
2022/05/05 00:52:37;;;;;;;12.52;5.30;;;;;;;-145.50;100.00;65435.88;5063002;28;20048;-67
2022/05/05 00:55:04;;;;;;;11.00;5.75;;;;;;;-145.50;100.00;65435.88;5053556;28;20958;-67
2022/05/05 00:57:32;;;;;;;15.98;6.47;;;;;;;-145.50;100.00;65435.88;5063097;28;20063;-67
2022/05/05 00:59:59;;;;;;;9.52;5.75;;;;;;;-145.50;100.00;65435.88;5036381;28;20044;-67
2022/05/05 01:02:26;;;;;;;14.90;5.93;;;;;;;-145.50;100.00;65435.88;5061302;28;20412;-66
2022/05/05 01:04:53;;;;;;;10.48;5.80;;;;;;;-145.50;100.00;65435.88;5069754;28;20044;-67
2022/05/05 01:07:21;;;;;;;11.82;5.72;;;;;;;-145.50;100.00;65435.88;5056116;28;20059;-67
2022/05/05 01:09:48;;;;;;;12.75;6.13;;;;;;;-145.50;100.00;65435.88;5070423;28;20062;-67
2022/05/05 01:12:15;;;;;;;10.80;5.65;;;;;;;-145.50;100.00;65435.88;5054891;28;20397;-67
2022/05/05 01:14:41;;;;;;;12.85;6.00;;;;;;;-145.50;100.00;65435.88;5083064;28;20060;-67
2022/05/05 01:17:08;;;;;;;13.55;6.30;;;;;;;-145.50;100.00;65435.88;5071280;28;20043;-67
2022/05/05 01:19:35;;;;;;;15.40;6.10;;;;;;;-145.50;100.00;65435.88;5065664;28;20103;-68
2022/05/05 01:22:03;;;;;;;12.02;5.65;;;;;;;-145.50;100.00;65435.88;5079946;28;20518;-66
2022/05/05 01:30:00;;;;;;;11.85;6.00;;;;;;;-145.50;100.00;65435.88;5062552;28;20095;-67
2022/05/05 01:32:31;;;;;;;12.18;6.72;;;;;;;-145.50;100.00;65435.88;5075782;28;20046;-68
2022/05/05 01:34:58;;;;;;;13.45;6.28;;;;;;;-145.50;100.00;65435.88;5061295;28;20054;-67
2022/05/05 01:37:25;;;;;;;10.65;6.00;;;;;;;-145.50;100.00;65435.88;5080891;28;20465;-67
2022/05/05 01:39:52;;;;;;;14.52;7.03;;;;;;;-145.50;100.00;65435.88;5045761;28;20489;-68
2022/05/05 01:42:19;;;;;;;10.07;5.88;;;;;;;-145.50;100.00;65435.88;5080905;28;20052;-68
2022/05/05 01:44:46;;;;;;;15.48;6.45;;;;;;;-145.50;100.00;65435.88;5080887;28;20501;-66
2022/05/05 01:47:12;;;;;;;16.10;6.03;;;;;;;-145.50;100.00;65435.88;5076407;28;20428;-67
2022/05/05 01:49:39;;;;;;;13.05;6.50;;;;;;;-145.50;100.00;65435.88;5079318;28;20058;-66
2022/05/05 01:52:09;;;;;;;12.60;5.60;;;;;;;-145.50;100.00;65435.88;5072512;28;20374;-66
2022/05/05 01:54:36;;;;;;;18.23;6.82;;;;;;;-145.50;100.00;65435.88;5071792;28;20083;-66
2022/05/05 01:57:02;;;;;;;13.50;6.30;;;;;;;-145.50;100.00;65435.88;5052437;28;20048;-67
2022/05/05 01:59:29;;;;;;;13.40;6.20;;;;;;;-145.50;100.00;65435.88;5057934;28;20260;-66
2022/05/05 02:01:55;;;;;;;9.70;5.95;;;;;;;-145.50;100.00;65435.88;5050993;28;20266;-67
2022/05/05 02:04:22;;;;;;;10.55;5.70;;;;;;;-145.50;100.00;65435.88;5057423;28;20052;-66
2022/05/05 02:06:48;;;;;;;12.07;6.00;;;;;;;-145.50;100.00;65435.88;5060911;28;20052;-66
2022/05/05 02:09:15;;;;;;;11.50;6.80;;;;;;;-145.50;100.00;65435.88;5052123;28;20063;-66
2022/05/05 02:11:42;;;;;;;11.88;6.07;;;;;;;-145.50;100.00;65435.88;5061627;28;20048;-66
2022/05/05 02:14:08;;;;;;;16.40;6.10;;;;;;;-145.50;100.00;65435.88;5041503;28;20048;-66
2022/05/05 02:16:35;;;;;;;9.38;5.38;;;;;;;-145.50;100.00;65435.88;5059892;28;20047;-68
2022/05/05 02:19:01;;;;;;;10.82;6.38;;;;;;;-145.50;100.00;65435.88;5080228;28;20134;-67
2022/05/05 02:21:28;;;;;;;13.35;6.13;;;;;;;-145.50;100.00;65435.88;5053187;28;20136;-67
2022/05/05 02:23:54;;;;;;;13.70;6.07;;;;;;;-145.50;100.00;65435.88;5073106;28;20062;-67
2022/05/05 02:26:21;;;;;;;15.30;6.40;;;;;;;-145.50;100.00;65435.88;5059595;28;20044;-66
2022/05/05 02:28:49;;;;;;;11.70;5.90;;;;;;;-145.50;100.00;65435.88;5056184;28;20044;-67
2022/05/05 02:31:16;;;;;;;11.63;6.65;;;;;;;-145.50;100.00;65435.88;5059219;28;20136;-66
2022/05/05 02:33:42;;;;;;;11.30;5.95;;;;;;;-145.50;100.00;65435.88;5073597;28;20586;-66
2022/05/05 02:38:55;;;;;;;11.73;6.25;;;;;;;-145.50;100.00;65435.88;5070528;28;20451;-67
2022/05/05 02:41:21;;;;;;;14.00;5.97;;;;;;;-145.50;100.00;65435.88;5078876;28;20047;-67
2022/05/05 02:43:48;;;;;;;10.15;5.82;;;;;;;-145.50;100.00;65435.88;5065154;28;20055;-67
2022/05/05 02:46:14;;;;;;;11.27;6.20;;;;;;;-145.50;100.00;65435.88;5080014;28;20156;-67
2022/05/05 02:48:41;;;;;;;12.63;6.65;;;;;;;-145.50;100.00;65435.88;5074818;28;20613;-66
2022/05/05 02:51:07;;;;;;;10.98;5.63;;;;;;;-145.50;100.00;65435.88;5080539;28;20060;-66
2022/05/05 02:56:19;;;;;;;14.50;6.18;;;;;;;-145.50;100.00;65435.88;5070062;28;20139;-66
2022/05/05 02:58:46;;;;;;;10.45;6.35;;;;;;;-145.50;100.00;65435.88;5078205;28;20060;-67
2022/05/05 03:01:12;;;;;;;11.65;5.97;;;;;;;-145.50;100.00;65435.88;5072278;28;20048;-67
2022/05/05 03:03:39;;;;;;;10.75;5.90;;;;;;;-145.50;100.00;65435.88;5084054;28;20060;-67
2022/05/05 03:06:05;;;;;;;12.00;5.97;;;;;;;-145.50;100.00;65435.88;5075857;28;20493;-67
2022/05/05 03:08:32;;;;;;;13.57;6.07;;;;;;;-145.50;100.00;65435.88;5083501;28;20044;-66
2022/05/05 03:10:58;;;;;;;18.73;6.70;;;;;;;-145.50;100.00;65435.88;5079103;28;20137;-67
2022/05/05 03:13:25;;;;;;;15.40;5.97;;;;;;;-145.50;100.00;65435.88;5069812;28;20396;-66
2022/05/05 03:15:51;;;;;;;10.07;6.18;;;;;;;-145.50;100.00;65435.88;5064635;28;20060;-66
2022/05/05 03:18:17;;;;;;;11.70;6.30;;;;;;;-145.50;100.00;65435.88;5076099;28;20138;-67
2022/05/05 03:20:44;;;;;;;12.38;5.78;;;;;;;-145.50;100.00;65435.88;5083612;28;20058;-66
2022/05/05 03:23:10;;;;;;;12.60;6.13;;;;;;;-145.50;100.00;65435.88;5075424;28;20068;-67
2022/05/05 03:25:37;;;;;;;10.88;5.60;;;;;;;-145.50;100.00;65435.88;5075695;28;20501;-67
2022/05/05 03:28:04;;;;;;;9.90;5.55;;;;;;;-145.50;100.00;65435.88;5080946;28;20731;-68
2022/05/05 03:30:31;;;;;;;8.98;5.70;;;;;;;-145.50;100.00;65435.88;5073441;28;20044;-66
2022/05/05 03:32:57;;;;;;;11.65;6.43;;;;;;;-145.50;100.00;65435.88;5078590;28;20045;-67
2022/05/05 03:35:23;;;;;;;10.10;6.15;;;;;;;-145.50;100.00;65435.88;5043747;28;20048;-67
2022/05/05 03:37:50;;;;;;;11.65;6.00;;;;;;;-145.50;100.00;65435.88;5075908;28;20055;-66
2022/05/05 03:40:17;;;;;;;11.00;6.13;;;;;;;-145.50;100.00;65435.88;5085009;28;20356;-67
2022/05/05 03:42:44;;;;;;;10.45;5.63;;;;;;;-145.50;100.00;65435.88;5066864;28;20471;-66
2022/05/05 03:45:10;;;;;;;15.10;7.50;;;;;;;-145.50;100.00;65435.88;5072433;28;20048;-66
2022/05/05 03:47:37;;;;;;;12.77;6.45;;;;;;;-145.50;100.00;65435.88;5055300;28;20052;-66
2022/05/05 03:50:04;;;;;;;10.90;6.32;;;;;;;-145.50;100.00;65435.88;5070467;28;20500;-66
2022/05/05 03:52:30;;;;;;;14.32;6.90;;;;;;;-145.50;100.00;65435.88;5055624;28;20052;-66
2022/05/05 03:54:56;;;;;;;12.57;6.47;;;;;;;-145.50;100.00;65435.88;5070016;28;20052;-66
2022/05/05 03:57:23;;;;;;;13.77;6.80;;;;;;;-145.50;100.00;65435.88;5054243;28;20066;-66
2022/05/05 03:59:49;;;;;;;12.73;6.35;;;;;;;-145.50;100.00;65435.88;5060820;28;20055;-67
2022/05/05 04:02:16;;;;;;;14.77;6.78;;;;;;;-145.50;100.00;65435.88;5071865;28;20428;-67
2022/05/05 04:04:43;;;;;;;13.70;6.78;;;;;;;-145.50;100.00;65435.88;5055807;28;20049;-66
2022/05/05 04:07:09;;;;;;;12.40;6.63;;;;;;;-145.50;100.00;65435.88;5055769;28;20052;-67
2022/05/05 04:09:36;;;;;;;11.45;6.15;;;;;;;-145.50;100.00;65435.88;5061436;28;20048;-68
2022/05/05 04:12:02;;;;;;;12.55;6.45;;;;;;;-145.50;100.00;65435.88;5063015;28;20037;-67
2022/05/05 04:14:29;;;;;;;16.10;6.30;;;;;;;-145.50;100.00;65435.88;5052981;28;20068;-66
2022/05/05 04:16:55;;;;;;;14.77;6.47;;;;;;;-145.50;100.00;65435.88;5060170;28;20049;-67
2022/05/05 04:19:22;;;;;;;10.38;5.63;;;;;;;-145.50;100.00;65435.88;5054927;28;20056;-67
2022/05/05 04:21:48;;;;;;;10.80;6.20;;;;;;;-145.50;100.00;65435.88;5049065;28;20052;-67
2022/05/05 04:24:14;;;;;;;14.23;7.35;;;;;;;-145.50;100.00;65435.88;5062315;28;20086;-68
2022/05/05 04:26:42;;;;;;;11.90;6.82;;;;;;;-145.50;100.00;65435.88;5059091;28;20152;-67
2022/05/05 04:29:09;;;;;;;13.00;6.30;;;;;;;-145.50;100.00;65435.88;5070718;28;20063;-67
2022/05/05 04:31:35;;;;;;;16.13;6.60;;;;;;;-145.50;100.00;65435.88;5052455;28;20044;-67
2022/05/05 04:34:03;;;;;;;12.45;6.30;;;;;;;-145.50;100.00;65435.88;5053580;28;20058;-67
2022/05/05 04:36:35;;;;;;;10.30;6.10;;;;;;;-145.50;100.00;65435.88;5082604;28;20114;-67
2022/05/05 04:39:03;;;;;;;13.88;6.72;;;;;;;-145.50;100.00;65435.88;5056402;28;20053;-67
2022/05/05 04:41:30;;;;;;;;;;;;;;;-145.50;100.00;65435.88;5062248;28;20059;-67
2022/05/05 04:43:56;;;;;;;9.82;6.78;;;;;;;-145.50;100.00;65435.88;5061068;28;19924;-67
2022/05/05 04:46:23;;;;;;;14.60;7.20;;;;;;;-145.50;100.00;65435.88;5075964;28;20533;-67
2022/05/05 04:48:50;;;;;;;14.00;6.88;;;;;;;-145.50;100.00;65435.88;5074211;28;20056;-67
2022/05/05 04:51:16;;;;;;;12.50;7.13;;;;;;;-145.50;100.00;65435.88;5063326;28;20070;-65
2022/05/05 04:53:42;;;;;;;14.02;7.60;;;;;;;-145.50;100.00;65435.88;5043900;28;1094427;-68
2022/05/05 04:56:10;;;;;;;17.48;6.78;;;;;;;-145.50;100.00;65435.88;5074364;28;20048;-66
2022/05/05 04:58:36;;;;;;;13.90;7.38;;;;;;;-145.50;100.00;65435.88;5064049;28;20044;-66
2022/05/05 05:01:03;;;;;;;10.98;6.30;;;;;;;-145.50;100.00;65435.88;5054466;28;20448;-66
2022/05/05 05:03:32;;;;;;;22.92;7.32;;;;;;;-145.50;100.00;65435.88;5077363;28;20598;-67
2022/05/05 05:05:59;;;;;;;12.98;7.13;;;;;;;-145.50;100.00;65435.88;5081752;28;20056;-67
2022/05/05 05:08:26;;;;;;;21.05;6.95;;;;;;;-145.50;100.00;65435.88;5074233;28;20162;-67
2022/05/05 05:10:52;;;;;;;16.83;6.75;;;;;;;-145.50;100.00;65435.88;5077764;28;20468;-67
2022/05/05 05:13:18;;;;;;;24.35;6.70;;;;;;;-145.50;100.00;65435.88;5072639;28;20156;-67
2022/05/05 05:15:45;;;;;;;31.88;7.68;;;;;;;-145.50;100.00;65435.88;5074545;28;20568;-66
2022/05/05 05:18:12;;;;;;;19.52;6.63;;;;;;;-145.50;100.00;65435.88;5055211;28;20493;-67
2022/05/05 05:20:38;;;;;;;22.60;6.68;;;;;;;-145.50;100.00;65435.88;5082648;28;20051;-67
2022/05/05 05:23:05;;;;;;;31.73;7.97;;;;;;;-145.50;100.00;65435.88;5081836;28;20533;-67
2022/05/05 05:25:31;;;;;;;29.08;7.97;;;;;;;-145.50;100.00;65435.88;5072723;28;20056;-67
2022/05/05 05:28:04;;;;;;;22.27;6.88;;;;;;;-145.50;100.00;65435.88;5076843;28;20262;-67
2022/05/05 05:30:37;;;;;;;25.35;7.78;;;;;;;-145.50;100.00;65435.88;5063733;28;20059;-67
2022/05/05 05:33:04;;;;;;;28.00;7.72;;;;;;;-145.50;100.00;65435.88;5071239;28;20842;-68
2022/05/05 05:35:30;;;;;;;36.80;8.38;;;;;;;-145.50;100.00;65435.88;5060006;28;20052;-68
2022/05/05 05:37:57;;;;;;;36.03;9.07;;;;;;;-145.50;100.00;65435.88;5081279;28;20044;-68
2022/05/05 05:40:23;;;;;;;44.35;8.55;;;;;;;-145.50;100.00;65435.88;5074926;28;20052;-67
2022/05/05 05:42:50;;;;;;;48.40;9.90;;;;;;;-145.50;100.00;65435.88;5061935;28;20045;-68
2022/05/05 05:45:18;;;;;;;24.88;7.25;;;;;;;-145.50;100.00;65435.88;5056652;28;20585;-67
2022/05/05 05:47:45;;;;;;;;;;;;;;;-145.50;100.00;65435.88;5052955;28;20063;-67
2022/05/05 05:50:11;;;;;;;18.10;8.05;;;;;;;-145.50;100.00;65435.88;5080602;28;20014;-68
2022/05/05 05:52:37;;;;;;;26.73;8.52;;;;;;;-145.50;100.00;65435.88;5072739;28;20048;-67
2022/05/05 05:55:05;;;;;;;16.80;9.00;;;;;;;-145.50;100.00;65435.88;5075270;28;20137;-67
2022/05/05 05:57:32;;;;;;;18.58;9.05;;;;;;;-145.50;100.00;65435.88;5069678;28;20540;-67
2022/05/05 05:59:58;;;;;;;19.98;9.30;;;;;;;-145.50;100.00;65435.88;5078314;28;20585;-68
2022/05/05 06:05:16;;;;;;;24.50;10.43;;;;;;;-145.50;100.00;65435.88;5071676;28;20054;-67
2022/05/05 06:07:43;;;;;;;19.75;9.35;;;;;;;-145.50;100.00;65435.88;5080569;28;20071;-67
2022/05/05 06:10:09;;;;;;;22.98;10.55;;;;;;;-145.50;100.00;65435.88;5067791;28;20062;-67
2022/05/05 06:12:36;;;;;;;18.05;8.90;;;;;;;-145.50;100.00;65435.88;5075492;28;20524;-67
2022/05/05 06:15:03;;;;;;;26.17;9.98;;;;;;;-145.50;100.00;65435.88;5053713;28;20052;-67
2022/05/05 06:17:29;;;;;;;16.58;10.00;;;;;;;-145.50;100.00;65435.88;5079555;28;20067;-67
2022/05/05 06:19:55;;;;;;;23.80;10.18;;;;;;;-145.50;100.00;65435.88;5079694;28;20117;-67
2022/05/05 06:22:22;;;;;;;23.85;10.10;;;;;;;-145.50;100.00;65435.88;5070296;28;20051;-67
2022/05/05 06:24:48;;;;;;;23.98;9.93;;;;;;;-145.50;100.00;65435.88;5072117;28;20043;-67
2022/05/05 06:27:15;;;;;;;23.80;9.93;;;;;;;-145.50;100.00;65435.88;5071000;28;20104;-67
2022/05/05 06:29:42;;;;;;;23.40;9.50;;;;;;;-145.50;100.00;65435.88;5080562;28;20094;-67
2022/05/05 06:32:08;;;;;;;21.40;10.23;;;;;;;-145.50;100.00;65435.88;5069563;28;20445;-67
2022/05/05 06:34:35;;;;;;;18.15;9.20;;;;;;;-145.50;100.00;65435.88;5078620;28;20166;-68
2022/05/05 06:37:01;;;;;;;18.33;9.02;;;;;;;-145.50;100.00;65435.88;5059304;28;20051;-67
2022/05/05 06:39:28;;;;;;;16.40;8.80;;;;;;;-145.50;100.00;65435.88;5068934;28;20754;-66
2022/05/05 06:41:55;;;;;;;20.38;9.30;;;;;;;-145.50;100.00;65435.88;5062759;28;20457;-67
2022/05/05 06:44:22;;;;;;;24.00;9.57;;;;;;;-145.50;100.00;65435.88;5057223;28;20059;-66
2022/05/05 06:46:49;;;;;;;22.45;10.27;;;;;;;-145.50;100.00;65435.88;5060663;28;20052;-66
2022/05/05 06:49:17;;;;;;;22.20;9.52;;;;;;;-145.50;100.00;65435.88;5056935;28;20048;-66
2022/05/05 06:51:43;;;;;;;18.33;9.80;;;;;;;-145.50;100.00;65435.88;5067208;28;20056;-67
2022/05/05 06:54:10;;;;;;;25.25;9.70;;;;;;;-145.50;100.00;65435.88;5055177;28;20053;-67
2022/05/05 06:56:36;;;;;;;24.48;11.90;;;;;;;-145.50;100.00;65435.88;5050150;28;20056;-67
2022/05/05 06:59:03;;;;;;;16.80;9.25;;;;;;;-145.50;100.00;65435.88;5059579;28;20056;-67
2022/05/05 07:07:13;;;;;;;20.00;9.85;;;;;;;-145.50;100.00;65435.88;5064001;28;20055;-67
2022/05/05 07:12:30;;;;;;;21.15;9.13;;;;;;;-145.50;100.00;65435.88;5050544;28;20049;-67
2022/05/05 07:14:58;;;;;;;18.75;9.32;;;;;;;-145.50;100.00;65435.88;5059162;28;20520;-67
2022/05/05 07:17:25;;;;;;;21.48;10.27;;;;;;;-145.50;100.00;65435.88;5062974;28;20052;-67
2022/05/05 07:19:52;;;;;;;20.42;10.25;;;;;;;-145.50;100.00;65435.88;5051751;28;20208;-67
2022/05/05 07:22:19;;;;;;;22.60;9.90;;;;;;;-145.50;100.00;65435.88;5076711;28;20056;-66
2022/05/05 07:24:46;;;;;;;20.27;9.88;;;;;;;-145.50;100.00;65435.88;5072024;28;20141;-68
2022/05/05 07:27:13;;;;;;;20.33;11.05;;;;;;;-145.50;100.00;65435.88;5064236;28;20048;-67
2022/05/05 07:29:41;;;;;;;16.80;9.25;;;;;;;-145.50;100.00;65435.88;5065757;28;20055;-67
2022/05/05 07:32:08;;;;;;;25.33;11.57;;;;;;;-145.50;100.00;65435.88;5069058;28;20059;-67
2022/05/05 07:34:35;;;;;;;27.13;11.23;;;;;;;-145.50;100.00;65435.88;5056610;28;20055;-66
2022/05/05 07:37:02;;;;;;;26.17;11.27;;;;;;;-145.50;100.00;65435.88;5070325;28;20476;-67
2022/05/05 07:39:29;;;;;;;23.15;9.25;;;;;;;-145.50;100.00;65435.88;5079517;28;20066;-67
2022/05/05 07:41:56;;;;;;;24.63;10.88;;;;;;;-145.50;100.00;65435.88;5072243;28;20497;-66
2022/05/05 07:44:22;;;;;;;21.88;10.75;;;;;;;-145.50;100.00;65435.88;5073893;28;20446;-67
2022/05/05 07:46:49;;;;;;;21.83;9.95;;;;;;;-145.50;100.00;65435.88;5069097;28;20055;-66
2022/05/05 07:49:15;;;;;;;15.73;9.55;;;;;;;-145.50;100.00;65435.88;5076895;28;20055;-67
2022/05/05 07:51:42;;;;;;;16.33;8.45;;;;;;;-145.50;100.00;65435.88;5082369;28;20056;-67
2022/05/05 07:56:55;;;;;;;19.75;9.98;;;;;;;-145.50;100.00;65435.88;5082611;28;20052;-67
2022/05/05 07:59:22;;;;;;;18.55;9.50;;;;;;;-145.50;100.00;65435.88;5076713;28;20170;-67
2022/05/05 08:01:49;;;;;;;19.38;10.13;;;;;;;-145.50;100.00;65435.88;5075578;28;20052;-67
2022/05/05 08:04:15;;;;;;;26.08;9.63;;;;;;;-145.50;100.00;65435.88;5073011;28;20084;-67
2022/05/05 08:06:42;;;;;;;17.58;8.23;;;;;;;-145.50;100.00;65435.88;5082522;28;20055;-66
2022/05/05 08:09:09;;;;;;;19.50;9.43;;;;;;;-145.50;100.00;65435.88;5081808;28;20119;-67
2022/05/05 08:11:36;;;;;;;19.58;10.02;;;;;;;-145.50;100.00;65435.88;5073759;28;20052;-67
2022/05/05 08:14:04;;;;;;;21.30;9.53;;;;;;;-145.50;100.00;65435.88;5060772;28;20052;-67
2022/05/05 08:16:31;;;;;;;18.77;9.80;;;;;;;-145.50;100.00;65435.88;5068127;28;20656;-67
2022/05/05 08:18:58;;;;;;;24.35;9.60;;;;;;;-145.50;100.00;65435.88;5060413;28;20080;-66
2022/05/05 08:21:24;;;;;;;20.52;10.63;;;;;;;-145.50;100.00;65435.88;5064818;28;20058;-67
2022/05/05 08:29:21;;;;;;;22.60;10.60;;;;;;;-145.50;100.00;65435.88;5073567;28;20420;-67
2022/05/05 08:31:47;;;;;;;22.75;10.55;;;;;;;-145.50;100.00;65435.88;5054153;28;20062;-67
2022/05/05 08:34:14;;;;;;;19.33;10.40;;;;;;;-145.50;100.00;65435.88;5060026;28;20142;-67
2022/05/05 08:36:40;;;;;;;21.95;11.27;;;;;;;-145.50;100.00;65435.88;5069137;28;20486;-67
2022/05/05 08:39:07;;;;;;;21.42;10.93;;;;;;;-145.50;100.00;65435.88;5054092;28;20144;-67
2022/05/05 08:41:34;;;;;;;17.52;9.52;;;;;;;-145.50;100.00;65435.88;5056679;28;20476;-68
2022/05/05 08:44:00;;;;;;;21.90;10.07;;;;;;;-145.50;100.00;65435.88;5053774;28;20060;-68
2022/05/05 08:46:33;;;;;;;20.85;9.43;;;;;;;-145.50;100.00;65435.88;5061661;28;20597;-68
2022/05/05 08:49:04;;;;;;;20.27;9.57;;;;;;;-145.50;100.00;65435.88;5070514;28;20052;-67
2022/05/05 08:51:42;;;;;;;18.83;9.73;;;;;;;-145.50;100.00;65435.88;5061350;28;20167;-70
2022/05/05 08:54:16;;;;;;;20.00;10.05;;;;;;;-145.50;100.00;65435.88;5068762;28;20063;-68
2022/05/05 08:56:43;;;;;;;20.45;11.07;;;;;;;-145.50;100.00;65435.88;5065939;28;20044;-68
2022/05/05 08:59:13;;;;;;;20.30;10.25;;;;;;;-145.50;100.00;65435.88;5078073;28;20047;-68
2022/05/05 09:01:40;;;;;;;18.80;10.93;;;;;;;-145.50;100.00;65435.88;5053242;28;20501;-68
2022/05/05 09:04:08;;;;;;;20.50;10.82;;;;;;;-145.50;100.00;65435.88;5061554;28;20463;-68
2022/05/05 09:06:42;;;;;;;25.42;11.15;;;;;;;-145.50;100.00;65435.88;5054070;28;20048;-68
2022/05/05 09:09:25;;;;;;;19.88;11.20;;;;;;;-145.50;100.00;65435.88;5056703;28;20091;-68
2022/05/05 09:12:18;;;;;;;21.15;9.80;;;;;;;-145.50;100.00;65435.88;5057937;28;20429;-68
2022/05/05 09:14:47;;;;;;;22.25;10.55;;;;;;;-145.50;100.00;65435.88;5060826;28;20585;-69
2022/05/05 09:17:16;;;;;;;19.85;10.70;;;;;;;-145.50;100.00;65435.88;5079041;28;20632;-68
2022/05/05 09:19:48;;;;;;;22.15;10.23;;;;;;;-145.50;100.00;65435.88;5063516;28;20070;-69
2022/05/05 09:22:18;;;;;;;22.58;11.57;;;;;;;-145.50;100.00;65435.88;5078151;28;20409;-68
2022/05/05 09:24:51;;;;;;;25.13;11.68;;;;;;;-145.50;100.00;65435.88;5069934;28;20516;-69
2022/05/05 09:27:23;;;;;;;19.95;11.35;;;;;;;-145.50;100.00;65435.88;5079850;28;20052;-69
2022/05/05 09:30:10;;;;;;;23.23;11.38;;;;;;;-145.50;100.00;65435.88;5069708;28;20048;-68
2022/05/05 09:32:42;;;;;;;21.80;11.25;;;;;;;-145.50;100.00;65435.88;5074484;28;20072;-69
2022/05/05 09:35:14;;;;;;;21.73;11.88;;;;;;;-145.50;100.00;65435.88;5070356;28;20052;-69
2022/05/05 09:37:45;;;;;;;22.88;11.77;;;;;;;-145.50;100.00;65435.88;5073769;28;20142;-68
2022/05/05 09:40:17;;;;;;;20.23;11.90;;;;;;;-145.50;100.00;65435.88;5073164;28;20475;-69
2022/05/05 09:42:46;;;;;;;20.40;11.13;;;;;;;-145.50;100.00;65435.88;5062890;28;20051;-69
2022/05/05 09:45:21;;;;;;;21.45;12.98;;;;;;;-145.50;100.00;65435.88;5080488;28;20058;-68
2022/05/05 09:47:47;;;;;;;20.63;11.80;;;;;;;-145.50;100.00;65435.88;5068320;28;20352;-68
2022/05/05 09:50:14;;;;;;;21.42;12.75;;;;;;;-145.50;100.00;65435.88;5077081;28;20044;-68
2022/05/05 09:58:16;;;;;;;24.92;12.25;;;;;;;-145.50;100.00;65435.88;5073530;28;20445;-67
2022/05/05 10:00:47;;;;;;;56.75;13.93;;;;;;;-145.50;100.00;65435.88;5078919;28;20059;-68
2022/05/05 10:04:00;;;;;;;22.45;12.68;;;;;;;-145.50;100.00;65435.88;5076310;28;20573;-69
2022/05/05 10:06:34;;;;;;;18.88;11.05;;;;;;;-145.50;100.00;65435.88;5066162;28;20496;-68
2022/05/05 10:09:12;;;;;;;21.73;11.43;;;;;;;-145.50;100.00;65435.88;5067107;28;20065;-69
2022/05/05 10:11:40;;;;;;;;;;;;;;;-145.50;100.00;65435.88;5067912;28;20052;-69
2022/05/05 10:14:10;;;;;;;28.95;12.23;;;;;;;-145.50;100.00;65435.88;5087787;28;19924;-69
2022/05/05 10:16:39;;;;;;;17.23;11.80;;;;;;;-145.50;100.00;65435.88;5051139;28;20059;-69
2022/05/05 10:19:06;;;;;;;18.42;11.32;;;;;;;-145.50;100.00;65435.88;5072331;28;20048;-68
2022/05/05 10:21:44;;;;;;;17.20;11.93;;;;;;;-145.50;100.00;65435.88;5077041;28;20058;-69
2022/05/05 10:24:38;;;;;;;18.83;11.32;;;;;;;-145.50;100.00;65435.88;5070826;28;20507;-69
2022/05/05 10:27:04;;;;;;;24.80;12.05;;;;;;;-145.50;100.00;65435.88;5049305;28;20469;-69
2022/05/05 10:29:31;;;;;;;24.48;13.38;;;;;;;-145.50;100.00;65435.88;5061345;28;20055;-69
2022/05/05 10:32:17;;;;;;;22.55;12.18;;;;;;;-145.50;100.00;65435.88;5067378;28;20143;-68
2022/05/05 10:35:06;;;;;;;21.48;12.07;;;;;;;-145.50;100.00;65435.88;5069738;28;20062;-68
2022/05/05 10:37:38;;;;;;;20.23;11.55;;;;;;;-145.50;100.00;65435.88;5080079;28;20534;-69
2022/05/05 10:40:09;;;;;;;21.00;11.95;;;;;;;-145.50;100.00;65435.88;5070472;28;20064;-69
2022/05/05 10:42:41;;;;;;;19.25;11.52;;;;;;;-145.50;100.00;65435.88;5072903;28;20253;-69
2022/05/05 10:45:31;;;;;;;23.58;12.95;;;;;;;-145.50;100.00;65435.88;5062902;28;20384;-68
2022/05/05 10:48:06;;;;;;;28.20;12.32;;;;;;;-145.50;100.00;65435.88;5064130;28;20048;-69
2022/05/05 10:50:54;;;;;;;66.57;16.38;;;;;;;-145.50;100.00;65435.88;5055386;28;20204;-69
2022/05/05 10:53:27;;;;;;;170.40;23.80;;;;;;;-145.50;100.00;65435.88;5058335;28;20052;-68
2022/05/05 10:55:54;;;;;;;51.90;14.07;;;;;;;-145.50;100.00;65435.88;5048578;28;20167;-68
2022/05/05 10:58:56;;;;;;;28.73;11.93;;;;;;;-145.50;100.00;65435.88;5062473;28;20051;-69
2022/05/05 11:01:25;;;;;;;19.38;12.00;;;;;;;-145.50;100.00;65435.88;5052399;28;20418;-69
2022/05/05 11:04:04;;;;;;;;;;;;;;;-145.50;100.00;65435.88;5071973;28;20097;-70
2022/05/05 11:06:32;;;;;;;22.00;11.48;;;;;;;-145.50;100.00;65435.88;5079102;28;19924;-68
2022/05/05 11:08:59;;;;;;;19.40;12.68;;;;;;;-145.50;100.00;65435.88;5067382;28;20048;-68
2022/05/05 11:11:44;;;;;;;20.13;12.25;;;;;;;-145.50;100.00;65435.88;5074471;28;20060;-68
2022/05/05 11:22:59;;;;;;;19.60;11.93;;;;;;;-145.50;100.00;65435.88;5067399;28;20056;-70
2022/05/05 11:25:25;;;;;;;18.20;12.00;;;;;;;-145.50;100.00;65435.88;5056897;28;20544;-69
2022/05/05 11:27:56;;;;;;;18.60;10.85;;;;;;;-145.50;100.00;65435.88;5087852;28;20061;-69
2022/05/05 11:30:23;;;;;;;17.17;11.40;;;;;;;-145.50;100.00;65435.88;5066655;28;20059;-69
2022/05/05 11:32:49;;;;;;;17.25;11.65;;;;;;;-145.50;100.00;65435.88;5078240;28;20151;-68
2022/05/05 11:35:36;;;;;;;16.92;10.77;;;;;;;-145.50;100.00;65435.88;5072817;28;20048;-69
2022/05/05 11:38:02;;;;;;;20.83;13.50;;;;;;;-145.50;100.00;65435.88;5054977;28;20800;-69
2022/05/05 11:40:36;;;;;;;17.63;12.23;;;;;;;-145.50;100.00;65435.88;5059001;28;20059;-68
2022/05/05 11:45:54;;;;;;;23.65;12.68;;;;;;;-145.50;100.00;65435.88;5067154;28;20053;-69
2022/05/05 11:48:21;;;;;;;16.73;11.20;;;;;;;-145.50;100.00;65435.88;5058165;28;20374;-68
2022/05/05 11:51:06;;;;;;;17.45;11.38;;;;;;;-145.50;100.00;65435.88;5063930;28;20517;-68
2022/05/05 11:53:33;;;;;;;18.63;10.63;;;;;;;-145.50;100.00;65435.88;5053615;28;20055;-69
2022/05/05 11:55:59;;;;;;;19.05;11.50;;;;;;;-145.50;100.00;65435.88;5082910;28;20386;-69
2022/05/05 12:04:02;;;;;;;21.27;12.45;;;;;;;-145.50;100.00;65435.88;5068208;28;20044;-68